createdAt,value
2017-09-03T00:00:37.989Z,62.50
2017-09-03T00:03:05.776Z,62.40
2017-09-03T00:05:33.573Z,62.70
2017-09-03T00:08:01.369Z,62.50
2017-09-03T00:10:29.184Z,62.50
2017-09-03T00:12:56.960Z,62.30
2017-09-03T00:15:24.794Z,62.40
2017-09-03T00:17:52.632Z,62.30
2017-09-03T00:20:20.433Z,62.20
2017-09-03T00:22:48.340Z,62.60
2017-09-03T00:25:16.172Z,62.00
2017-09-03T00:27:44.007Z,62.10
2017-09-03T00:30:11.929Z,61.90
2017-09-03T00:32:39.776Z,61.80
2017-09-03T00:35:07.621Z,61.50
2017-09-03T00:37:35.527Z,61.10
2017-09-03T00:40:04.213Z,61.20
2017-09-03T00:42:32.044Z,61.20
2017-09-03T00:44:59.907Z,60.90
2017-09-03T00:47:27.749Z,61.20
2017-09-03T00:49:55.593Z,61.10
2017-09-03T00:52:23.404Z,61.10
2017-09-03T00:54:51.280Z,61.50
2017-09-03T00:57:19.103Z,61.20
2017-09-03T00:59:46.972Z,61.30
2017-09-03T01:02:14.813Z,61.10
2017-09-03T01:04:42.717Z,61.20
2017-09-03T01:07:10.618Z,61.10
2017-09-03T01:09:38.397Z,61.00
2017-09-03T01:12:06.286Z,61.30
2017-09-03T01:14:34.145Z,61.40
2017-09-03T01:17:02.040Z,61.40
2017-09-03T01:19:29.909Z,61.40
2017-09-03T01:21:57.759Z,61.10
2017-09-03T01:24:25.545Z,61.10
2017-09-03T01:26:53.350Z,61.20
2017-09-03T01:29:21.108Z,61.10
2017-09-03T01:31:48.901Z,61.40
2017-09-03T01:34:16.811Z,61.50
2017-09-03T01:36:44.699Z,61.30
2017-09-03T01:39:12.521Z,61.40
2017-09-03T01:41:40.293Z,61.30
2017-09-03T01:44:08.122Z,61.50
2017-09-03T01:46:35.985Z,62.30
2017-09-03T01:49:03.755Z,61.60
2017-09-03T01:51:31.849Z,61.50
2017-09-03T01:54:00.457Z,61.40
2017-09-03T01:56:28.273Z,61.40
2017-09-03T01:58:56.068Z,61.60
2017-09-03T02:01:23.868Z,61.50
2017-09-03T02:03:51.720Z,61.70
2017-09-03T02:06:19.498Z,61.90
2017-09-03T02:08:47.420Z,61.70
2017-09-03T02:11:15.213Z,61.50
2017-09-03T02:13:43.033Z,61.60
2017-09-03T02:16:10.819Z,61.50
2017-09-03T02:18:38.687Z,61.80
2017-09-03T02:21:06.505Z,61.90
2017-09-03T02:23:34.384Z,62.00
2017-09-03T02:26:02.176Z,61.90
2017-09-03T02:28:30.083Z,62.00
2017-09-03T02:30:57.879Z,62.00
2017-09-03T02:33:25.716Z,61.80
2017-09-03T02:35:53.543Z,61.90
2017-09-03T02:38:21.347Z,61.80
2017-09-03T02:40:49.178Z,61.80
2017-09-03T02:43:16.951Z,61.70
2017-09-03T02:45:44.733Z,61.90
2017-09-03T02:48:12.547Z,61.90
2017-09-03T02:50:40.380Z,61.70
2017-09-03T02:53:08.275Z,61.90
2017-09-03T02:55:36.154Z,62.00
2017-09-03T02:58:03.965Z,62.70
2017-09-03T03:00:31.825Z,61.90
2017-09-03T03:02:59.580Z,61.50
2017-09-03T03:05:27.398Z,61.60
2017-09-03T03:07:55.222Z,61.50
2017-09-03T03:10:23.112Z,61.70
2017-09-03T03:12:51.001Z,61.60
2017-09-03T03:15:18.788Z,61.90
2017-09-03T03:17:46.665Z,61.80
2017-09-03T03:20:14.478Z,61.90
2017-09-03T03:22:42.245Z,62.00
2017-09-03T03:25:10.017Z,62.00
2017-09-03T03:27:37.809Z,62.00
2017-09-03T03:30:05.636Z,62.10
2017-09-03T03:32:33.412Z,62.10
2017-09-03T03:35:01.185Z,62.50
2017-09-03T03:37:29.024Z,62.00
2017-09-03T03:39:59.868Z,62.00
2017-09-03T03:42:27.703Z,62.00
2017-09-03T03:44:55.513Z,62.10
2017-09-03T03:47:23.371Z,61.80
2017-09-03T03:49:51.224Z,61.90
2017-09-03T03:52:19.047Z,61.90
2017-09-03T03:54:46.833Z,61.90
2017-09-03T03:57:14.630Z,62.10
2017-09-03T03:59:42.436Z,61.70
2017-09-03T04:02:10.249Z,61.80
2017-09-03T04:04:38.008Z,61.90
2017-09-03T04:07:06.059Z,61.70
2017-09-03T04:09:33.864Z,61.80
2017-09-03T04:12:01.663Z,61.70
2017-09-03T04:14:29.456Z,62.00
2017-09-03T04:16:57.321Z,62.00
2017-09-03T04:19:25.236Z,61.80
2017-09-03T04:21:53.073Z,61.70
2017-09-03T04:24:21.641Z,61.70
2017-09-03T04:26:49.468Z,61.70
2017-09-03T04:29:17.276Z,61.70
2017-09-03T04:31:45.132Z,61.50
2017-09-03T04:34:12.900Z,61.70
2017-09-03T04:36:40.657Z,61.70
2017-09-03T04:39:08.541Z,61.70
2017-09-03T04:41:36.397Z,61.60
2017-09-03T04:44:04.184Z,61.60
2017-09-03T04:46:31.991Z,61.70
2017-09-03T04:48:59.758Z,61.80
2017-09-03T04:51:27.534Z,61.70
2017-09-03T04:53:55.384Z,62.20
2017-09-03T04:56:23.161Z,61.70
2017-09-03T04:58:51.063Z,61.40
2017-09-03T05:01:18.889Z,61.60
2017-09-03T05:03:46.701Z,61.40
2017-09-03T05:06:14.569Z,61.60
2017-09-03T05:08:42.393Z,61.30
2017-09-03T05:11:10.165Z,61.70
2017-09-03T05:13:38.066Z,61.40
2017-09-03T05:16:05.986Z,61.70
2017-09-03T05:18:33.796Z,61.60
2017-09-03T05:21:01.566Z,61.90
2017-09-03T05:23:29.438Z,61.80
2017-09-03T05:25:57.384Z,61.80
2017-09-03T05:28:25.243Z,61.90
2017-09-03T05:30:53.085Z,61.80
2017-09-03T05:33:20.894Z,61.90
2017-09-03T05:35:48.726Z,61.70
2017-09-03T05:38:16.574Z,61.90
2017-09-03T05:40:44.376Z,61.90
2017-09-03T05:43:12.197Z,62.80
2017-09-03T05:45:40.007Z,62.00
2017-09-03T05:48:07.773Z,62.10
2017-09-03T05:50:35.612Z,62.00
2017-09-03T05:53:03.487Z,62.10
2017-09-03T05:55:31.313Z,61.90
2017-09-03T05:57:59.163Z,62.00
2017-09-03T06:00:26.948Z,61.80
2017-09-03T06:02:54.763Z,61.80
2017-09-03T06:05:22.607Z,61.90
2017-09-03T06:07:50.445Z,61.90
2017-09-03T06:10:18.267Z,61.80
2017-09-03T06:12:46.072Z,61.80
2017-09-03T06:15:14.191Z,61.80
2017-09-03T06:17:42.001Z,61.70
2017-09-03T06:20:09.813Z,61.70
2017-09-03T06:22:37.704Z,61.80
2017-09-03T06:25:05.506Z,61.80
2017-09-03T06:27:33.388Z,61.90
2017-09-03T06:30:01.284Z,61.80
2017-09-03T06:32:29.152Z,62.10
2017-09-03T06:34:56.955Z,62.00
2017-09-03T06:37:24.767Z,62.00
2017-09-03T06:39:52.703Z,61.90
2017-09-03T06:42:20.512Z,62.20
2017-09-03T06:44:48.400Z,62.10
2017-09-03T06:47:16.194Z,62.00
2017-09-03T06:49:43.995Z,61.90
2017-09-03T06:52:11.814Z,62.10
2017-09-03T06:54:39.628Z,62.20
2017-09-03T06:57:07.437Z,62.20
2017-09-03T06:59:35.241Z,62.20
2017-09-03T07:02:03.042Z,62.40
2017-09-03T07:04:30.898Z,62.30
2017-09-03T07:06:58.685Z,62.30
2017-09-03T07:09:26.540Z,62.50
2017-09-03T07:11:54.334Z,62.30
2017-09-03T07:14:22.106Z,62.40
2017-09-03T07:16:49.949Z,62.30
2017-09-03T07:19:17.783Z,62.30
2017-09-03T07:21:45.574Z,62.30
2017-09-03T07:24:13.465Z,62.30
2017-09-03T07:26:41.267Z,62.20
2017-09-03T07:29:09.110Z,62.20
2017-09-03T07:31:36.915Z,62.10
2017-09-03T07:34:04.808Z,62.00
2017-09-03T07:36:32.610Z,61.90
2017-09-03T07:39:00.396Z,62.60
2017-09-03T07:41:28.196Z,61.80
2017-09-03T07:43:56.025Z,61.70
2017-09-03T07:46:23.812Z,61.50
2017-09-03T07:48:51.665Z,61.60
2017-09-03T07:51:19.482Z,61.50
2017-09-03T07:53:47.334Z,61.30
2017-09-03T07:56:15.201Z,61.10
2017-09-03T07:58:43.012Z,61.00
2017-09-03T08:01:10.837Z,60.80
2017-09-03T08:03:38.650Z,60.70
2017-09-03T08:06:06.588Z,60.60
2017-09-03T08:08:34.369Z,60.40
2017-09-03T08:11:02.168Z,60.40
2017-09-03T08:13:30.085Z,60.00
2017-09-03T08:15:57.882Z,59.80
2017-09-03T08:18:25.693Z,59.70
2017-09-03T08:20:53.548Z,59.40
2017-09-03T08:23:21.394Z,59.40
2017-09-03T08:25:49.333Z,59.20
2017-09-03T08:28:17.168Z,59.10
2017-09-03T08:30:46.831Z,59.00
2017-09-03T08:33:14.731Z,59.00
2017-09-03T08:35:42.557Z,58.90
2017-09-03T08:38:11.117Z,58.80
2017-09-03T08:40:39.040Z,58.80
2017-09-03T08:43:06.904Z,58.30
2017-09-03T08:45:34.752Z,58.20
2017-09-03T08:48:02.632Z,57.60
2017-09-03T08:50:30.496Z,58.50
2017-09-03T08:52:58.309Z,57.60
2017-09-03T08:55:26.164Z,57.80
2017-09-03T08:57:54.133Z,57.70
2017-09-03T09:00:22.676Z,57.00
2017-09-03T09:02:50.484Z,57.00
2017-09-03T09:05:18.285Z,56.70
2017-09-03T09:07:46.881Z,56.50
2017-09-03T09:10:14.801Z,56.50
2017-09-03T09:12:42.710Z,56.60
2017-09-03T09:15:10.481Z,56.70
2017-09-03T09:17:46.923Z,56.50
2017-09-03T09:20:14.983Z,56.20
2017-09-03T09:22:42.842Z,55.80
2017-09-03T09:25:15.211Z,55.80
2017-09-03T09:27:43.972Z,55.80
2017-09-03T09:30:12.180Z,55.80
2017-09-03T09:32:40.044Z,56.00
2017-09-03T09:35:07.820Z,55.80
2017-09-03T09:37:35.667Z,56.00
2017-09-03T09:40:03.523Z,56.20
2017-09-03T09:42:31.392Z,56.20
2017-09-03T09:44:59.188Z,56.10
2017-09-03T09:47:27.040Z,56.10
2017-09-03T09:49:54.930Z,56.20
2017-09-03T09:52:22.772Z,56.10
2017-09-03T09:54:50.643Z,56.20
2017-09-03T09:57:18.530Z,56.00
2017-09-03T09:59:46.410Z,56.00
2017-09-03T10:02:14.226Z,55.50
2017-09-03T10:04:42.016Z,55.40
2017-09-03T10:07:09.799Z,54.80
2017-09-03T10:09:37.562Z,53.60
2017-09-03T10:12:05.438Z,54.00
2017-09-03T10:14:33.277Z,53.10
2017-09-03T10:17:01.178Z,52.60
2017-09-03T10:19:29.128Z,52.50
2017-09-03T10:21:57.959Z,51.80
2017-09-03T10:24:25.815Z,52.10
2017-09-03T10:26:53.678Z,52.30
2017-09-03T10:29:21.570Z,51.80
2017-09-03T10:31:49.507Z,51.40
2017-09-03T10:34:18.333Z,51.20
2017-09-03T10:36:46.197Z,51.10
2017-09-03T10:39:14.084Z,51.80
2017-09-03T10:41:43.911Z,53.10
2017-09-03T10:44:11.828Z,53.00
2017-09-03T10:46:39.673Z,53.30
2017-09-03T10:49:07.542Z,53.60
2017-09-03T10:51:35.348Z,53.80
2017-09-03T10:54:04.109Z,53.80
2017-09-03T10:56:32.113Z,54.10
2017-09-03T10:59:00.009Z,54.00
2017-09-03T11:01:27.791Z,54.30
2017-09-03T11:03:55.691Z,54.40
2017-09-03T11:06:23.497Z,54.80
2017-09-03T11:08:52.020Z,55.20
2017-09-03T11:11:19.827Z,55.20
2017-09-03T11:13:47.719Z,55.30
2017-09-03T11:16:15.637Z,55.70
2017-09-03T11:18:43.441Z,55.70
2017-09-03T11:21:11.252Z,56.00
2017-09-03T11:23:39.148Z,56.50
2017-09-03T11:26:06.930Z,56.70
2017-09-03T11:28:34.725Z,56.90
2017-09-03T11:31:02.658Z,56.80
2017-09-03T11:33:31.637Z,57.00
2017-09-03T11:35:59.442Z,57.20
2017-09-03T11:38:27.301Z,57.50
2017-09-03T11:40:55.157Z,57.40
2017-09-03T11:43:24.911Z,57.70
2017-09-03T11:45:52.900Z,57.70
2017-09-03T11:48:20.761Z,57.70
2017-09-03T11:50:48.602Z,57.80
2017-09-03T11:53:16.394Z,57.80
2017-09-03T11:55:44.194Z,57.40
2017-09-03T11:58:12.031Z,57.10
2017-09-03T12:00:39.850Z,56.90
2017-09-03T12:03:07.725Z,57.00
2017-09-03T12:05:35.522Z,57.10
2017-09-03T12:08:03.291Z,56.90
2017-09-03T12:10:31.076Z,57.00
2017-09-03T12:13:02.909Z,57.00
2017-09-03T12:15:30.704Z,57.00
2017-09-03T12:17:58.496Z,56.60
2017-09-03T12:20:26.282Z,56.40
2017-09-03T12:22:54.149Z,55.80
2017-09-03T12:25:21.926Z,55.80
2017-09-03T12:27:49.802Z,56.70
2017-09-03T12:30:18.825Z,56.30
2017-09-03T12:32:46.638Z,56.00
2017-09-03T12:35:14.473Z,55.60
2017-09-03T12:37:42.285Z,55.90
2017-09-03T12:40:10.092Z,56.30
2017-09-03T12:42:38.706Z,56.00
2017-09-03T12:45:06.606Z,56.40
2017-09-03T12:47:35.430Z,56.60
2017-09-03T12:50:03.256Z,56.70
2017-09-03T12:52:31.870Z,56.30
2017-09-03T12:54:59.786Z,56.20
2017-09-03T12:57:27.609Z,56.80
2017-09-03T12:59:55.377Z,56.50
2017-09-03T13:02:23.285Z,56.00
2017-09-03T13:04:51.041Z,56.70
2017-09-03T13:07:19.651Z,57.30
2017-09-03T13:09:47.491Z,57.20
2017-09-03T13:12:15.368Z,57.30
2017-09-03T13:14:43.280Z,57.40
2017-09-03T13:17:11.122Z,57.70
2017-09-03T13:19:39.299Z,57.70
2017-09-03T13:22:07.224Z,57.90
2017-09-03T13:24:35.063Z,58.10
2017-09-03T13:27:03.100Z,58.20
2017-09-03T13:29:30.917Z,58.20
2017-09-03T13:31:58.754Z,58.30
2017-09-03T13:34:27.078Z,58.60
2017-09-03T13:36:54.989Z,58.60
2017-09-03T13:39:23.046Z,58.70
2017-09-03T13:41:50.903Z,58.80
2017-09-03T13:44:18.780Z,58.80
2017-09-03T13:46:46.611Z,58.80
2017-09-03T13:49:14.438Z,59.00
2017-09-03T13:51:42.679Z,59.20
2017-09-03T13:54:10.552Z,59.30
2017-09-03T13:56:38.445Z,59.40
2017-09-03T13:59:07.124Z,59.60
2017-09-03T14:01:34.986Z,59.60
2017-09-03T14:04:02.849Z,60.00
2017-09-03T14:06:30.613Z,59.80
2017-09-03T14:08:58.469Z,59.80
2017-09-03T14:11:26.290Z,59.90
2017-09-03T14:13:54.098Z,60.00
2017-09-03T14:16:21.884Z,60.10
2017-09-03T14:18:49.694Z,60.10
2017-09-03T14:21:17.627Z,60.10
2017-09-03T14:23:45.552Z,60.20
2017-09-03T14:26:13.484Z,60.10
2017-09-03T14:28:41.290Z,60.20
2017-09-03T14:31:09.158Z,60.40
2017-09-03T14:33:36.971Z,60.60
2017-09-03T14:36:04.860Z,60.50
2017-09-03T14:38:32.701Z,60.50
2017-09-03T14:41:00.492Z,60.60
2017-09-03T14:43:28.281Z,60.70
2017-09-03T14:45:56.124Z,60.70
2017-09-03T14:48:23.986Z,60.80
2017-09-03T14:50:51.810Z,60.90
2017-09-03T14:53:19.669Z,60.80
2017-09-03T14:55:47.627Z,60.80
2017-09-03T14:58:15.480Z,61.00
2017-09-03T15:00:43.293Z,60.90
2017-09-03T15:03:11.168Z,61.00
2017-09-03T15:05:39.026Z,60.90
2017-09-03T15:08:06.952Z,61.00
2017-09-03T15:10:34.823Z,61.90
2017-09-03T15:13:02.784Z,61.20
2017-09-03T15:15:30.652Z,61.20
2017-09-03T15:17:58.472Z,61.30
2017-09-03T15:20:26.275Z,61.40
2017-09-03T15:22:54.247Z,61.50
2017-09-03T15:25:22.052Z,61.60
2017-09-03T15:27:49.984Z,61.60
2017-09-03T15:30:17.817Z,61.60
2017-09-03T15:32:46.397Z,61.70
2017-09-03T15:35:14.239Z,61.80
2017-09-03T15:37:42.047Z,61.90
2017-09-03T15:40:09.863Z,62.20
2017-09-03T15:42:37.724Z,62.30
2017-09-03T15:45:05.684Z,62.20
2017-09-03T15:47:33.590Z,62.30
2017-09-03T15:50:01.427Z,62.40
2017-09-03T15:52:30.063Z,63.70
2017-09-03T15:54:57.961Z,62.90
2017-09-03T15:57:25.824Z,62.90
2017-09-03T15:59:53.781Z,62.80
2017-09-03T16:02:21.681Z,62.80
2017-09-03T16:04:54.859Z,62.70
2017-09-03T16:07:22.799Z,62.70
2017-09-03T16:09:50.608Z,62.50
2017-09-03T16:12:18.467Z,62.40
2017-09-03T16:14:46.340Z,62.30
2017-09-03T16:17:14.163Z,62.50
2017-09-03T16:19:42.136Z,62.90
2017-09-03T16:22:09.970Z,62.90
2017-09-03T16:24:37.978Z,62.60
2017-09-03T16:27:05.882Z,62.60
2017-09-03T16:29:34.390Z,62.10
2017-09-03T16:32:02.270Z,62.10
2017-09-03T16:34:30.049Z,62.10
2017-09-03T16:36:57.800Z,63.10
2017-09-03T16:39:25.566Z,63.30
2017-09-03T16:41:53.437Z,62.50
2017-09-03T16:44:22.287Z,63.00
2017-09-03T16:46:50.117Z,62.60
2017-09-03T16:49:17.929Z,62.50
2017-09-03T16:51:45.781Z,62.60
2017-09-03T16:54:13.610Z,62.70
2017-09-03T16:56:41.509Z,63.20
2017-09-03T16:59:09.417Z,62.50
2017-09-03T17:01:37.389Z,62.40
2017-09-03T17:04:05.224Z,62.60
2017-09-03T17:06:33.025Z,62.00
2017-09-03T17:09:00.898Z,61.80
2017-09-03T17:11:28.732Z,62.80
2017-09-03T17:13:56.649Z,63.30
2017-09-03T17:16:24.556Z,64.40
2017-09-03T17:18:52.407Z,63.60
2017-09-03T17:21:20.376Z,63.70
2017-09-03T17:23:48.242Z,65.10
2017-09-03T17:26:16.131Z,64.50
2017-09-03T17:28:44.018Z,64.40
2017-09-03T17:31:26.600Z,65.50
2017-09-03T17:33:54.590Z,66.00
2017-09-03T17:36:22.387Z,65.70
2017-09-03T17:38:55.584Z,66.10
2017-09-03T17:41:33.301Z,66.50
2017-09-03T17:44:11.066Z,66.70
2017-09-03T17:46:42.570Z,66.50
2017-09-03T17:49:10.443Z,66.80
2017-09-03T17:51:39.218Z,66.00
2017-09-03T17:54:07.578Z,66.00
2017-09-03T17:56:36.251Z,66.50
2017-09-03T17:59:04.049Z,66.50
2017-09-03T18:01:31.976Z,66.00
2017-09-03T18:03:59.831Z,66.20
2017-09-03T18:06:27.736Z,66.20
2017-09-03T18:08:55.570Z,66.20
2017-09-03T18:11:23.398Z,66.50
2017-09-03T18:13:51.247Z,66.80
2017-09-03T18:16:19.109Z,66.40
2017-09-03T18:18:46.984Z,66.10
2017-09-03T18:21:15.581Z,66.60
2017-09-03T18:23:43.421Z,66.60
2017-09-03T18:26:11.261Z,66.40
2017-09-03T18:28:39.989Z,66.10
2017-09-03T18:31:09.673Z,65.80
2017-09-03T18:33:37.509Z,65.40
2017-09-03T18:39:28.374Z,64.50
2017-09-03T18:41:56.303Z,64.90
2017-09-03T18:44:26.153Z,65.10
2017-09-03T18:46:54.052Z,65.60
2017-09-03T18:49:22.153Z,64.30
2017-09-03T18:51:59.866Z,63.90
2017-09-03T18:54:29.217Z,64.50
2017-09-03T18:56:57.030Z,63.80
2017-09-03T19:10:47.250Z,63.90
2017-09-03T19:13:15.137Z,64.80
2017-09-03T19:15:42.945Z,63.60
2017-09-03T19:18:10.764Z,62.70
2017-09-03T19:20:38.610Z,62.10
2017-09-03T19:23:06.520Z,62.10
2017-09-03T19:25:34.374Z,62.00
2017-09-03T19:28:02.846Z,62.30
2017-09-03T19:30:30.762Z,62.40
2017-09-03T19:32:58.596Z,62.80
2017-09-03T19:35:26.401Z,63.80
2017-09-03T19:37:56.838Z,63.60
2017-09-03T19:40:24.645Z,62.80
2017-09-03T19:42:52.505Z,62.80
2017-09-03T19:45:20.329Z,62.60
2017-09-03T19:47:48.072Z,63.10
2017-09-03T19:50:15.835Z,63.20
2017-09-03T19:52:43.569Z,63.10
2017-09-03T19:55:11.318Z,62.80
2017-09-03T19:57:39.150Z,62.70
2017-09-03T20:00:06.914Z,61.70
2017-09-03T20:02:34.676Z,61.90
2017-09-03T20:05:02.450Z,61.90
2017-09-03T20:07:30.249Z,62.40
2017-09-03T20:09:58.038Z,61.10
2017-09-03T20:12:25.777Z,60.80
2017-09-03T20:14:53.627Z,61.30
2017-09-03T20:17:21.381Z,60.70
2017-09-03T20:19:49.253Z,61.10
2017-09-03T20:22:16.988Z,61.80
2017-09-03T20:24:44.805Z,61.10
2017-09-03T20:27:12.584Z,61.20
2017-09-03T20:29:41.303Z,62.10
2017-09-03T20:32:09.099Z,61.90
2017-09-03T20:34:37.342Z,62.70
2017-09-03T20:37:05.188Z,61.90
2017-09-03T20:39:33.110Z,62.00
2017-09-03T20:42:00.996Z,62.80
2017-09-03T20:44:28.819Z,62.10
2017-09-03T20:46:56.619Z,62.70
2017-09-03T20:49:24.461Z,63.00
2017-09-03T20:51:52.324Z,62.40
2017-09-03T20:54:20.119Z,62.70
2017-09-03T20:56:47.895Z,62.90
2017-09-03T20:59:15.669Z,62.70
2017-09-03T21:01:43.425Z,62.90
2017-09-03T21:04:12.407Z,63.60
2017-09-03T21:06:40.262Z,63.40
2017-09-03T21:09:09.976Z,63.20
2017-09-03T21:11:37.778Z,63.20
2017-09-03T21:14:05.549Z,64.10
2017-09-03T21:16:33.859Z,64.50
2017-09-03T21:19:01.718Z,64.20
2017-09-03T21:21:29.534Z,64.40
2017-09-03T21:23:57.367Z,63.90
2017-09-03T21:26:25.186Z,63.90
2017-09-03T21:28:52.960Z,64.00
2017-09-03T21:31:20.757Z,64.30
2017-09-03T21:33:48.757Z,64.20
2017-09-03T21:36:16.601Z,64.50
2017-09-03T21:38:44.449Z,64.40
2017-09-03T21:41:12.566Z,64.30
2017-09-03T21:43:40.343Z,64.40
2017-09-03T21:46:08.127Z,64.50
2017-09-03T21:48:36.682Z,64.50
2017-09-03T21:51:05.699Z,64.50
2017-09-03T21:53:33.493Z,64.90
2017-09-03T21:56:01.397Z,65.00
2017-09-03T21:58:29.183Z,64.70
2017-09-03T22:00:56.949Z,64.80
2017-09-03T22:03:25.356Z,64.80
2017-09-03T22:05:53.126Z,64.90
2017-09-03T22:08:20.959Z,65.10
2017-09-03T22:10:48.721Z,64.40
2017-09-03T22:13:16.566Z,64.40
2017-09-03T22:15:44.372Z,64.40
2017-09-03T22:18:12.163Z,64.10
2017-09-03T22:20:39.947Z,64.10
2017-09-03T22:23:07.930Z,64.90
2017-09-03T22:25:35.686Z,64.20
2017-09-03T22:28:03.460Z,64.10
2017-09-03T22:30:31.230Z,64.00
2017-09-03T22:32:59.085Z,64.00
2017-09-03T22:35:26.924Z,64.00
2017-09-03T22:37:54.698Z,64.00
2017-09-03T22:40:22.619Z,64.00
2017-09-03T22:42:50.397Z,63.90
2017-09-03T22:45:18.182Z,63.90
2017-09-03T22:47:45.934Z,63.70
2017-09-03T22:50:13.724Z,64.20
2017-09-03T22:52:41.555Z,63.90
2017-09-03T22:55:09.374Z,63.90
2017-09-03T22:57:37.145Z,64.00
2017-09-03T23:00:04.955Z,64.00
2017-09-03T23:02:32.720Z,63.80
2017-09-03T23:05:00.528Z,63.80
2017-09-03T23:07:28.306Z,63.80
2017-09-03T23:09:56.911Z,63.30
2017-09-03T23:12:25.525Z,63.40
2017-09-03T23:14:53.363Z,63.90
2017-09-03T23:17:21.127Z,63.40
2017-09-03T23:19:49.650Z,63.50
2017-09-03T23:22:17.535Z,63.50
2017-09-03T23:24:45.297Z,63.50
2017-09-03T23:27:13.057Z,63.40
2017-09-03T23:29:40.848Z,63.40
2017-09-03T23:32:08.616Z,63.30
2017-09-03T23:34:36.448Z,63.10
2017-09-03T23:37:04.264Z,63.10
2017-09-03T23:39:32.050Z,63.00
2017-09-03T23:41:59.848Z,63.20
2017-09-03T23:44:27.693Z,63.30
2017-09-03T23:46:55.465Z,63.00
2017-09-03T23:49:23.262Z,63.20
2017-09-03T23:51:51.124Z,63.20
2017-09-03T23:54:18.879Z,63.40
2017-09-03T23:56:46.734Z,63.60
2017-09-03T23:59:14.522Z,63.50
